Time;durP1;ratioP1;P1;durP2;ratioP2;P2;SDS_P1;SDS_P2;PMS_P1;PMS_P2;Temp;Humidity;BMP_temperature;BMP_pressure;BME280_temperature;BME280_humidity;BME280_pressure;Samples;Min_cycle;Max_cycle;Signal;HPM_P1;HPM_P2
2021/03/13 00:04:23;;;;;;;0.83;0.40;;;8.30;99.90;;;;;;20940636;28;20065;-79
2021/03/13 00:14:23;;;;;;;2.57;0.40;;;8.20;99.90;;;;;;20920631;28;20052;-79
2021/03/13 00:24:24;;;;;;;2.80;0.50;;;7.90;99.90;;;;;;20900482;28;20036;-77
2021/03/13 00:34:25;;;;;;;1.17;0.60;;;7.70;99.90;;;;;;20971969;28;20017;-78
2021/03/13 00:44:26;;;;;;;1.73;0.40;;;7.70;99.90;;;;;;21011489;28;20551;-79
2021/03/13 00:54:27;;;;;;;2.20;0.83;;;7.70;99.90;;;;;;21012188;28;20086;-80
2021/03/13 01:04:28;;;;;;;2.37;0.63;;;7.60;99.90;;;;;;21001801;28;20044;-77
2021/03/13 01:14:29;;;;;;;1.77;0.60;;;7.50;99.90;;;;;;20972704;28;20074;-77
2021/03/13 01:24:30;;;;;;;0.63;0.45;;;7.50;99.90;;;;;;20992973;28;20033;-80
2021/03/13 01:34:33;;;;;;;0.88;0.40;;;7.60;99.90;;;;;;20954459;28;20119;-80
2021/03/13 01:44:45;;;;;;;2.35;0.60;;;7.60;99.90;;;;;;20948080;28;20040;-80
2021/03/13 01:54:47;;;;;;;3.85;0.52;;;7.70;99.90;;;;;;20939194;28;20070;-80
2021/03/13 02:04:48;;;;;;;1.50;0.45;;;7.70;99.90;;;;;;20974646;28;20090;-76
2021/03/13 02:15:13;;;;;;;1.35;0.40;;;7.80;99.90;;;;;;20972288;28;20436;-78
2021/03/13 02:25:40;;;;;;;1.88;0.57;;;7.70;99.90;;;;;;20918340;28;20111;-77
2021/03/13 02:35:46;;;;;;;2.45;0.50;;;7.50;99.90;;;;;;20972729;28;20086;-78
2021/03/13 02:45:54;;;;;;;0.85;0.50;;;7.50;99.90;;;;;;20963035;28;20036;-77
2021/03/13 02:55:56;;;;;;;1.02;0.35;;;7.40;99.90;;;;;;20978797;28;20032;-77
2021/03/13 03:06:00;;;;;;;1.17;0.30;;;7.40;99.90;;;;;;20980331;28;20523;-79
2021/03/13 03:16:04;;;;;;;1.00;0.50;;;7.40;99.90;;;;;;20980849;28;20034;-78
2021/03/13 03:26:06;;;;;;;0.65;0.40;;;7.40;99.90;;;;;;20980151;28;20028;-79
2021/03/13 03:36:09;;;;;;;0.82;0.40;;;7.30;99.90;;;;;;20964874;28;20572;-79
2021/03/13 03:46:13;;;;;;;1.88;0.30;;;7.30;99.90;;;;;;21001517;22;20494;-75
2021/03/13 03:56:17;;;;;;;1.27;0.32;;;7.20;99.90;;;;;;20978212;28;20021;-76
2021/03/13 04:06:18;;;;;;;3.92;0.50;;;7.20;99.90;;;;;;20922573;28;20040;-75
2021/03/13 04:16:20;;;;;;;;;;;7.20;99.90;;;;;;20921092;28;20096;-76
2021/03/13 04:26:23;;;;;;;3.25;0.60;;;7.10;99.90;;;;;;20919700;28;20275;-75
2021/03/13 04:36:26;;;;;;;2.15;0.57;;;7.00;99.90;;;;;;20920328;28;20087;-75
2021/03/13 04:46:27;;;;;;;0.88;0.60;;;7.00;99.90;;;;;;20920230;28;20567;-75
2021/03/13 04:56:28;;;;;;;1.83;0.47;;;7.10;99.90;;;;;;20865715;28;20038;-75
2021/03/13 05:06:29;;;;;;;4.93;0.80;;;7.00;99.90;;;;;;20835027;28;20641;-75
2021/03/13 05:16:30;;;;;;;3.27;0.60;;;7.00;99.90;;;;;;20844456;28;20448;-75
2021/03/13 05:26:30;;;;;;;5.00;0.73;;;7.10;99.90;;;;;;20817049;28;20144;-75
2021/03/13 05:36:31;;;;;;;4.23;0.53;;;7.10;99.90;;;;;;20815556;28;20025;-75
2021/03/13 05:46:36;;;;;;;2.63;0.73;;;7.10;99.90;;;;;;20832559;28;20130;-75
2021/03/13 05:56:38;;;;;;;1.38;0.68;;;7.30;99.90;;;;;;20813893;28;20514;-75
2021/03/13 06:06:40;;;;;;;2.47;0.50;;;7.40;99.90;;;;;;20830685;28;20033;-76
2021/03/13 06:16:42;;;;;;;2.27;0.40;;;7.60;99.90;;;;;;20830067;28;20043;-75
2021/03/13 06:26:56;;;;;;;4.20;0.70;;;7.70;99.90;;;;;;20793816;28;20284;-73
2021/03/13 06:37:19;;;;;;;1.42;0.70;;;7.70;99.90;;;;;;20828345;28;20112;-73
2021/03/13 06:47:36;;;;;;;8.85;1.05;;;8.00;99.90;;;;;;20827333;28;20049;-74
2021/03/13 06:57:37;;;;;;;4.55;0.90;;;8.50;99.90;;;;;;20827023;28;20102;-73
2021/03/13 07:07:38;;;;;;;2.73;0.90;;;8.70;99.90;;;;;;20848580;28;20053;-73
2021/03/13 07:17:41;;;;;;;1.13;0.50;;;8.80;99.90;;;;;;20866855;28;20095;-75
2021/03/13 07:27:43;;;;;;;2.88;0.80;;;8.80;99.90;;;;;;20877557;28;20071;-76
2021/03/13 07:37:46;;;;;;;0.55;0.45;;;8.80;99.90;;;;;;20818054;28;20408;-75
2021/03/13 07:47:48;;;;;;;1.77;0.52;;;9.00;99.90;;;;;;20823998;28;20034;-76
2021/03/13 07:57:51;;;;;;;3.13;0.60;;;9.10;99.90;;;;;;20823839;28;20495;-75
2021/03/13 08:07:56;;;;;;;1.88;0.75;;;9.20;99.90;;;;;;20819903;28;20132;-75
2021/03/13 08:17:56;;;;;;;1.77;0.50;;;9.40;99.90;;;;;;20838093;28;20032;-77
2021/03/13 08:27:57;;;;;;;0.60;0.40;;;9.80;99.90;;;;;;20861744;28;20049;-77
2021/03/13 08:37:58;;;;;;;1.43;0.50;;;10.50;99.90;;;;;;20862748;28;20039;-76
2021/03/13 08:47:59;;;;;;;0.60;0.40;;;10.20;99.90;;;;;;20869167;28;20044;-76
2021/03/13 08:58:00;;;;;;;1.20;0.60;;;10.30;99.90;;;;;;20879130;28;20025;-77
2021/03/13 09:08:01;;;;;;;1.55;0.30;;;10.30;99.90;;;;;;20891412;28;20112;-76
2021/03/13 09:18:02;;;;;;;4.63;0.30;;;10.60;99.90;;;;;;20926575;28;20053;-77
2021/03/13 09:28:03;;;;;;;1.27;0.47;;;11.00;99.90;;;;;;20911825;28;20058;-77
2021/03/13 09:38:09;;;;;;;0.40;0.40;;;10.90;99.90;;;;;;20915085;28;20104;-77
2021/03/13 09:48:12;;;;;;;2.72;0.40;;;10.80;99.90;;;;;;20935443;22;20044;-78
2021/03/13 09:58:17;;;;;;;2.47;0.70;;;10.90;99.90;;;;;;20979127;28;20087;-76
2021/03/13 10:08:21;;;;;;;2.88;0.77;;;11.20;99.90;;;;;;20969147;28;20032;-79
2021/03/13 10:18:28;;;;;;;1.27;0.30;;;11.10;99.90;;;;;;20981569;28;20055;-78
2021/03/13 10:28:31;;;;;;;1.15;0.40;;;11.60;99.90;;;;;;20959886;28;20429;-79
2021/03/13 10:38:42;;;;;;;0.75;0.40;;;11.30;99.90;;;;;;20948347;28;20517;-79
2021/03/13 10:48:54;;;;;;;2.22;0.60;;;11.60;99.90;;;;;;20979302;28;20085;-79
2021/03/13 10:58:58;;;;;;;1.27;0.30;;;11.60;99.90;;;;;;20961447;28;20032;-80
2021/03/13 11:09:02;;;;;;;1.42;0.47;;;11.40;99.90;;;;;;20956519;28;20036;-78
2021/03/13 11:19:04;;;;;;;3.42;0.60;;;11.30;99.90;;;;;;20907191;28;20376;-79
2021/03/13 11:29:05;;;;;;;;;;;11.40;99.90;;;;;;20966393;28;20057;-79
2021/03/13 11:39:07;;;;;;;1.63;0.40;;;11.20;99.90;;;;;;20949711;28;19912;-78
2021/03/13 11:49:08;;;;;;;3.10;0.43;;;11.10;99.90;;;;;;20911840;28;20048;-76
2021/03/13 11:59:08;;;;;;;0.45;0.30;;;11.00;99.90;;;;;;20920301;28;20753;-80
2021/03/13 12:09:10;;;;;;;1.77;0.50;;;11.00;99.90;;;;;;20921374;28;20063;-77
2021/03/13 12:19:11;;;;;;;3.80;0.47;;;11.00;99.90;;;;;;20906732;28;20048;-78
2021/03/13 12:29:11;;;;;;;2.80;0.47;;;11.10;99.90;;;;;;20955006;28;20037;-78
2021/03/13 12:39:12;;;;;;;0.25;0.22;;;11.10;99.90;;;;;;20962900;28;20036;-78
2021/03/13 12:49:13;;;;;;;2.95;0.35;;;11.10;99.90;;;;;;20979584;28;20498;-79
2021/03/13 12:59:14;;;;;;;1.17;0.50;;;11.10;99.90;;;;;;20981217;28;20033;-78
2021/03/13 13:09:15;;;;;;;0.63;0.40;;;11.00;99.90;;;;;;20961532;28;20614;-78
2021/03/13 13:19:16;;;;;;;3.28;0.60;;;11.00;99.90;;;;;;20949969;28;20031;-79
2021/03/13 13:29:17;;;;;;;0.60;0.47;;;10.90;99.90;;;;;;20930159;28;20028;-77
2021/03/13 13:39:17;;;;;;;1.73;0.63;;;10.90;99.90;;;;;;20905846;28;20090;-78
2021/03/13 13:49:18;;;;;;;2.03;0.90;;;11.00;99.90;;;;;;20905535;28;20047;-79
2021/03/13 13:59:19;;;;;;;1.05;0.47;;;11.10;99.90;;;;;;20983795;28;20029;-79
2021/03/13 14:09:20;;;;;;;0.45;0.32;;;11.00;99.90;;;;;;20987389;28;20047;-78
2021/03/13 14:19:21;;;;;;;1.10;0.60;;;10.80;99.90;;;;;;20985560;28;20040;-79
2021/03/13 14:29:22;;;;;;;4.87;1.53;;;7.50;99.90;;;;;;20974431;28;20040;-77
2021/03/13 14:39:23;;;;;;;;;;;7.10;99.90;;;;;;20926664;28;20609;-78
2021/03/13 14:49:25;;;;;;;3.70;1.80;;;6.90;99.90;;;;;;20909409;28;19999;-79
2021/03/13 14:59:26;;;;;;;2.38;1.30;;;6.30;99.90;;;;;;20937150;28;20039;-78
2021/03/13 15:09:27;;;;;;;4.90;1.33;;;5.80;99.90;;;;;;21020431;28;20458;-78
2021/03/13 15:19:29;;;;;;;0.40;0.30;;;5.30;99.90;;;;;;20963875;28;20044;-78
2021/03/13 15:29:29;;;;;;;0.90;0.47;;;4.90;99.90;;;;;;20971667;28;20028;-78
2021/03/13 15:39:31;;;;;;;1.65;0.50;;;4.70;99.90;;;;;;20968376;28;20403;-78
2021/03/13 15:49:32;;;;;;;0.40;0.40;;;4.40;99.90;;;;;;20926857;28;20051;-78
2021/03/13 15:59:33;;;;;;;0.40;0.40;;;4.30;99.90;;;;;;20935782;28;20059;-77
2021/03/13 16:09:34;;;;;;;1.13;0.50;;;4.00;99.90;;;;;;20953162;28;20040;-77
2021/03/13 16:19:36;;;;;;;0.55;0.55;;;3.80;99.90;;;;;;20956826;28;20039;-77
2021/03/13 16:29:42;;;;;;;1.02;0.50;;;3.60;99.90;;;;;;20973321;22;20159;-78
2021/03/13 16:39:43;;;;;;;0.65;0.52;;;3.40;99.90;;;;;;20880419;28;20044;-79
2021/03/13 16:49:45;;;;;;;0.57;0.57;;;3.20;99.90;;;;;;20914627;28;20776;-79
2021/03/13 16:59:46;;;;;;;2.33;0.68;;;2.90;99.90;;;;;;20922547;28;20032;-80
2021/03/13 17:09:47;;;;;;;;;;;2.70;99.90;;;;;;20942397;28;20029;-78
2021/03/13 17:19:49;;;;;;;2.75;1.55;;;2.80;99.90;;;;;;20896847;28;19912;-80
2021/03/13 17:29:50;;;;;;;;;;;2.90;99.90;;;;;;20864386;28;20044;-80
2021/03/13 17:39:51;;;;;;;3.85;1.60;;;3.10;99.90;;;;;;20870394;28;19960;-81
2021/03/13 17:49:53;;;;;;;7.43;5.47;;;3.30;99.90;;;;;;20850178;28;20040;-81
2021/03/13 17:59:54;;;;;;;5.25;3.92;;;3.40;99.90;;;;;;20892102;28;20333;-80
2021/03/13 18:09:56;;;;;;;4.40;2.83;;;3.60;99.90;;;;;;20887387;28;20037;-79
2021/03/13 18:19:57;;;;;;;4.68;1.90;;;3.70;99.90;;;;;;20896040;28;20033;-79
2021/03/13 18:30:04;;;;;;;4.18;2.08;;;3.90;99.90;;;;;;20919540;28;20017;-83
2021/03/13 18:40:06;;;;;;;2.38;1.20;;;4.10;99.90;;;;;;20917569;28;20033;-82
2021/03/13 18:50:10;;;;;;;3.65;1.20;;;4.50;99.90;;;;;;20888132;28;20041;-80
2021/03/13 19:00:12;;;;;;;5.15;2.55;;;4.60;99.90;;;;;;20932493;28;20033;-81
2021/03/13 19:10:16;;;;;;;8.60;2.35;;;4.80;99.90;;;;;;20924433;28;20519;-80
2021/03/13 19:20:18;;;;;;;3.40;1.33;;;4.80;99.90;;;;;;20912114;28;20033;-79
2021/03/13 19:30:42;;;;;;;3.38;1.80;;;4.80;99.90;;;;;;20895528;28;20045;-80
2021/03/13 19:40:43;;;;;;;2.63;1.10;;;4.70;99.90;;;;;;20863238;28;20048;-79
2021/03/13 19:50:44;;;;;;;7.40;1.27;;;4.90;99.90;;;;;;20869759;28;20044;-79
2021/03/13 20:00:45;;;;;;;7.27;1.13;;;5.30;99.90;;;;;;20889150;28;20086;-80
2021/03/13 20:10:46;;;;;;;1.80;0.70;;;5.80;99.90;;;;;;20928642;28;20040;-78
2021/03/13 20:20:47;;;;;;;6.53;1.03;;;5.70;99.90;;;;;;20891327;28;20679;-79
2021/03/13 20:30:48;;;;;;;2.27;0.70;;;5.80;99.90;;;;;;20921820;28;20523;-79
2021/03/13 20:40:49;;;;;;;6.63;1.27;;;6.00;99.90;;;;;;20852851;28;20037;-80
2021/03/13 20:50:50;;;;;;;2.10;0.70;;;6.70;99.90;;;;;;20897537;28;20144;-82
2021/03/13 21:00:50;;;;;;;5.60;0.70;;;6.90;99.90;;;;;;20929682;28;20041;-81
2021/03/13 21:10:51;;;;;;;0.63;0.50;;;6.80;99.90;;;;;;20880478;28;20037;-82
2021/03/13 21:20:52;;;;;;;3.00;0.80;;;6.80;99.90;;;;;;20902099;28;20044;-80
2021/03/13 21:30:53;;;;;;;5.30;0.77;;;6.60;99.90;;;;;;20933942;28;20029;-80
2021/03/13 21:40:54;;;;;;;9.70;1.70;;;6.40;99.90;;;;;;20905661;28;20033;-81
2021/03/13 21:50:55;;;;;;;5.43;1.03;;;6.30;99.90;;;;;;20938929;28;20045;-81
2021/03/13 22:00:56;;;;;;;4.37;0.90;;;6.40;99.90;;;;;;20925892;28;20045;-81
2021/03/13 22:10:57;;;;;;;1.43;0.40;;;6.70;99.90;;;;;;20921918;28;20049;-81
2021/03/13 22:20:58;;;;;;;1.57;0.50;;;5.70;99.90;;;;;;20942480;28;20480;-82
2021/03/13 22:30:59;;;;;;;0.90;0.30;;;5.40;99.90;;;;;;20846623;28;20108;-83
2021/03/13 22:41:02;;;;;;;0.68;0.40;;;5.10;99.90;;;;;;20920531;28;20049;-82
2021/03/13 22:51:03;;;;;;;0.85;0.40;;;5.00;99.90;;;;;;20907344;28;20152;-78
2021/03/13 23:01:04;;;;;;;0.43;0.30;;;4.70;99.90;;;;;;20914767;28;20036;-78
2021/03/13 23:11:04;;;;;;;1.10;0.47;;;4.40;99.90;;;;;;20905450;28;20033;-80
2021/03/13 23:21:06;;;;;;;0.43;0.40;;;4.30;99.90;;;;;;20907602;28;20032;-80
2021/03/13 23:31:06;;;;;;;;;;;4.20;99.90;;;;;;20917066;28;20033;-79
2021/03/13 23:41:08;;;;;;;0.20;0.20;;;4.10;99.90;;;;;;20886439;28;19936;-80
2021/03/13 23:51:09;;;;;;;0.95;0.47;;;3.50;99.90;;;;;;20895126;28;20491;-80
